sensor_id;sensor_type;location;lat;lon;timestamp;P1;durP1;ratioP1;P2;durP2;ratioP2
48524;SDS011;34316;51.514;-0.178;2023-12-07T00:00:46;35.88;;;27.25;;
48524;SDS011;34316;51.514;-0.178;2023-12-07T00:02:48;33.92;;;25.98;;
48524;SDS011;34316;51.514;-0.178;2023-12-07T00:04:50;32.17;;;25.75;;
48524;SDS011;34316;51.514;-0.178;2023-12-07T00:06:52;32.70;;;25.63;;
48524;SDS011;34316;51.514;-0.178;2023-12-07T00:08:54;31.83;;;25.73;;
48524;SDS011;34316;51.514;-0.178;2023-12-07T00:10:56;34.72;;;26.48;;
48524;SDS011;34316;51.514;-0.178;2023-12-07T00:12:57;32.40;;;25.70;;
48524;SDS011;34316;51.514;-0.178;2023-12-07T00:14:59;34.25;;;26.27;;
48524;SDS011;34316;51.514;-0.178;2023-12-07T00:17:01;31.73;;;24.73;;
48524;SDS011;34316;51.514;-0.178;2023-12-07T00:19:04;32.75;;;25.60;;
48524;SDS011;34316;51.514;-0.178;2023-12-07T00:21:07;33.85;;;26.35;;
48524;SDS011;34316;51.514;-0.178;2023-12-07T00:23:10;36.13;;;26.25;;
48524;SDS011;34316;51.514;-0.178;2023-12-07T00:25:12;35.38;;;27.05;;
48524;SDS011;34316;51.514;-0.178;2023-12-07T00:27:14;36.22;;;26.95;;
48524;SDS011;34316;51.514;-0.178;2023-12-07T00:29:16;34.03;;;26.55;;
48524;SDS011;34316;51.514;-0.178;2023-12-07T00:31:18;34.35;;;26.08;;
48524;SDS011;34316;51.514;-0.178;2023-12-07T00:33:21;32.30;;;26.25;;
48524;SDS011;34316;51.514;-0.178;2023-12-07T00:35:23;36.92;;;26.92;;
48524;SDS011;34316;51.514;-0.178;2023-12-07T00:37:25;37.85;;;27.60;;
48524;SDS011;34316;51.514;-0.178;2023-12-07T00:39:28;33.55;;;26.98;;
48524;SDS011;34316;51.514;-0.178;2023-12-07T00:41:30;38.13;;;27.02;;
48524;SDS011;34316;51.514;-0.178;2023-12-07T00:43:33;35.95;;;28.13;;
48524;SDS011;34316;51.514;-0.178;2023-12-07T00:45:35;36.45;;;27.52;;
48524;SDS011;34316;51.514;-0.178;2023-12-07T00:47:37;36.58;;;28.45;;
48524;SDS011;34316;51.514;-0.178;2023-12-07T00:49:39;37.13;;;27.27;;
48524;SDS011;34316;51.514;-0.178;2023-12-07T00:51:42;39.90;;;29.55;;
48524;SDS011;34316;51.514;-0.178;2023-12-07T00:53:44;40.15;;;28.98;;
48524;SDS011;34316;51.514;-0.178;2023-12-07T00:55:46;38.10;;;27.77;;
48524;SDS011;34316;51.514;-0.178;2023-12-07T00:57:48;39.38;;;28.40;;
48524;SDS011;34316;51.514;-0.178;2023-12-07T00:59:50;37.92;;;26.98;;
48524;SDS011;34316;51.514;-0.178;2023-12-07T01:01:51;36.53;;;27.23;;
48524;SDS011;34316;51.514;-0.178;2023-12-07T01:03:53;37.85;;;27.52;;
48524;SDS011;34316;51.514;-0.178;2023-12-07T01:05:56;36.22;;;25.95;;
48524;SDS011;34316;51.514;-0.178;2023-12-07T01:07:58;43.03;;;27.83;;
48524;SDS011;34316;51.514;-0.178;2023-12-07T01:10:01;39.35;;;27.65;;
48524;SDS011;34316;51.514;-0.178;2023-12-07T01:12:03;37.13;;;27.25;;
48524;SDS011;34316;51.514;-0.178;2023-12-07T01:14:06;37.80;;;27.30;;
48524;SDS011;34316;51.514;-0.178;2023-12-07T01:16:07;35.50;;;27.48;;
48524;SDS011;34316;51.514;-0.178;2023-12-07T01:18:09;38.83;;;27.38;;
48524;SDS011;34316;51.514;-0.178;2023-12-07T01:20:11;36.88;;;26.67;;
48524;SDS011;34316;51.514;-0.178;2023-12-07T01:22:15;38.00;;;27.98;;
48524;SDS011;34316;51.514;-0.178;2023-12-07T01:24:16;38.35;;;27.63;;
48524;SDS011;34316;51.514;-0.178;2023-12-07T01:26:18;36.03;;;27.48;;
48524;SDS011;34316;51.514;-0.178;2023-12-07T01:28:20;36.95;;;27.40;;
48524;SDS011;34316;51.514;-0.178;2023-12-07T01:30:22;38.72;;;28.42;;
48524;SDS011;34316;51.514;-0.178;2023-12-07T01:32:25;37.88;;;28.63;;
48524;SDS011;34316;51.514;-0.178;2023-12-07T01:34:27;41.78;;;29.38;;
48524;SDS011;34316;51.514;-0.178;2023-12-07T01:36:29;39.75;;;28.58;;
48524;SDS011;34316;51.514;-0.178;2023-12-07T01:38:31;43.35;;;30.02;;
48524;SDS011;34316;51.514;-0.178;2023-12-07T01:40:33;40.90;;;29.83;;
48524;SDS011;34316;51.514;-0.178;2023-12-07T01:42:36;39.73;;;29.33;;
48524;SDS011;34316;51.514;-0.178;2023-12-07T01:44:39;42.35;;;30.40;;
48524;SDS011;34316;51.514;-0.178;2023-12-07T01:46:41;42.03;;;30.92;;
48524;SDS011;34316;51.514;-0.178;2023-12-07T01:48:43;49.17;;;31.75;;
48524;SDS011;34316;51.514;-0.178;2023-12-07T01:50:46;48.85;;;34.15;;
48524;SDS011;34316;51.514;-0.178;2023-12-07T01:52:48;49.70;;;34.75;;
48524;SDS011;34316;51.514;-0.178;2023-12-07T01:56:54;51.10;;;34.85;;
48524;SDS011;34316;51.514;-0.178;2023-12-07T01:58:57;48.67;;;34.10;;
48524;SDS011;34316;51.514;-0.178;2023-12-07T02:00:59;48.85;;;35.25;;
48524;SDS011;34316;51.514;-0.178;2023-12-07T02:03:02;48.72;;;34.08;;
48524;SDS011;34316;51.514;-0.178;2023-12-07T02:05:06;46.85;;;34.08;;
48524;SDS011;34316;51.514;-0.178;2023-12-07T02:07:08;47.63;;;32.65;;
48524;SDS011;34316;51.514;-0.178;2023-12-07T02:09:10;45.83;;;32.25;;
48524;SDS011;34316;51.514;-0.178;2023-12-07T02:11:12;45.08;;;32.47;;
48524;SDS011;34316;51.514;-0.178;2023-12-07T02:13:14;48.67;;;32.58;;
48524;SDS011;34316;51.514;-0.178;2023-12-07T02:15:16;45.40;;;31.23;;
48524;SDS011;34316;51.514;-0.178;2023-12-07T02:17:32;43.28;;;31.20;;
48524;SDS011;34316;51.514;-0.178;2023-12-07T02:19:50;48.47;;;32.20;;
48524;SDS011;34316;51.514;-0.178;2023-12-07T02:21:58;46.45;;;32.95;;
48524;SDS011;34316;51.514;-0.178;2023-12-07T02:24:02;45.05;;;32.20;;
48524;SDS011;34316;51.514;-0.178;2023-12-07T02:28:50;43.17;;;31.58;;
48524;SDS011;34316;51.514;-0.178;2023-12-07T02:30:52;47.05;;;32.00;;
48524;SDS011;34316;51.514;-0.178;2023-12-07T02:32:53;44.42;;;31.85;;
48524;SDS011;34316;51.514;-0.178;2023-12-07T02:34:55;44.60;;;31.55;;
48524;SDS011;34316;51.514;-0.178;2023-12-07T02:36:57;45.70;;;31.80;;
48524;SDS011;34316;51.514;-0.178;2023-12-07T02:39:00;48.00;;;34.40;;
48524;SDS011;34316;51.514;-0.178;2023-12-07T02:41:04;47.65;;;34.20;;
48524;SDS011;34316;51.514;-0.178;2023-12-07T02:43:07;50.53;;;34.90;;
48524;SDS011;34316;51.514;-0.178;2023-12-07T02:45:10;49.28;;;34.40;;
48524;SDS011;34316;51.514;-0.178;2023-12-07T02:47:12;47.63;;;33.72;;
48524;SDS011;34316;51.514;-0.178;2023-12-07T02:49:14;48.40;;;34.80;;
48524;SDS011;34316;51.514;-0.178;2023-12-07T02:51:16;47.67;;;32.85;;
48524;SDS011;34316;51.514;-0.178;2023-12-07T02:53:18;49.25;;;33.58;;
48524;SDS011;34316;51.514;-0.178;2023-12-07T02:55:20;47.97;;;32.65;;
48524;SDS011;34316;51.514;-0.178;2023-12-07T02:57:22;44.97;;;31.98;;
48524;SDS011;34316;51.514;-0.178;2023-12-07T02:59:24;38.50;;;28.30;;
48524;SDS011;34316;51.514;-0.178;2023-12-07T03:01:26;39.38;;;28.35;;
48524;SDS011;34316;51.514;-0.178;2023-12-07T03:03:28;37.88;;;28.00;;
48524;SDS011;34316;51.514;-0.178;2023-12-07T03:05:30;41.63;;;28.92;;
48524;SDS011;34316;51.514;-0.178;2023-12-07T03:07:32;36.15;;;27.15;;
48524;SDS011;34316;51.514;-0.178;2023-12-07T03:09:35;38.80;;;28.83;;
48524;SDS011;34316;51.514;-0.178;2023-12-07T03:11:37;40.63;;;29.23;;
48524;SDS011;34316;51.514;-0.178;2023-12-07T03:13:39;40.58;;;29.05;;
48524;SDS011;34316;51.514;-0.178;2023-12-07T03:15:41;38.67;;;28.15;;
48524;SDS011;34316;51.514;-0.178;2023-12-07T03:17:43;40.67;;;28.15;;
48524;SDS011;34316;51.514;-0.178;2023-12-07T03:19:45;40.55;;;28.63;;
48524;SDS011;34316;51.514;-0.178;2023-12-07T03:21:47;42.13;;;29.00;;
48524;SDS011;34316;51.514;-0.178;2023-12-07T03:23:49;39.78;;;27.73;;
48524;SDS011;34316;51.514;-0.178;2023-12-07T03:25:51;35.40;;;25.95;;
48524;SDS011;34316;51.514;-0.178;2023-12-07T03:27:53;35.90;;;26.67;;
48524;SDS011;34316;51.514;-0.178;2023-12-07T03:29:55;34.55;;;24.65;;
48524;SDS011;34316;51.514;-0.178;2023-12-07T03:31:57;31.42;;;24.15;;
48524;SDS011;34316;51.514;-0.178;2023-12-07T03:33:59;32.05;;;24.58;;
48524;SDS011;34316;51.514;-0.178;2023-12-07T03:36:02;30.63;;;24.20;;
48524;SDS011;34316;51.514;-0.178;2023-12-07T03:38:05;31.90;;;23.27;;
48524;SDS011;34316;51.514;-0.178;2023-12-07T03:40:07;31.52;;;23.00;;
48524;SDS011;34316;51.514;-0.178;2023-12-07T03:42:10;31.20;;;22.57;;
48524;SDS011;34316;51.514;-0.178;2023-12-07T03:44:32;28.77;;;21.63;;
48524;SDS011;34316;51.514;-0.178;2023-12-07T03:46:34;29.20;;;21.58;;
48524;SDS011;34316;51.514;-0.178;2023-12-07T03:48:36;30.10;;;22.20;;
48524;SDS011;34316;51.514;-0.178;2023-12-07T03:50:38;27.65;;;20.70;;
48524;SDS011;34316;51.514;-0.178;2023-12-07T03:52:40;26.95;;;20.98;;
48524;SDS011;34316;51.514;-0.178;2023-12-07T03:54:42;26.77;;;20.33;;
48524;SDS011;34316;51.514;-0.178;2023-12-07T03:56:44;26.85;;;19.30;;
48524;SDS011;34316;51.514;-0.178;2023-12-07T03:58:46;26.90;;;20.15;;
48524;SDS011;34316;51.514;-0.178;2023-12-07T04:00:47;26.58;;;20.65;;
48524;SDS011;34316;51.514;-0.178;2023-12-07T04:02:49;25.55;;;20.20;;
48524;SDS011;34316;51.514;-0.178;2023-12-07T04:04:51;26.70;;;20.20;;
48524;SDS011;34316;51.514;-0.178;2023-12-07T04:06:53;25.92;;;20.08;;
48524;SDS011;34316;51.514;-0.178;2023-12-07T04:08:55;26.48;;;20.75;;
48524;SDS011;34316;51.514;-0.178;2023-12-07T04:10:57;27.25;;;20.65;;
48524;SDS011;34316;51.514;-0.178;2023-12-07T04:12:59;27.23;;;20.38;;
48524;SDS011;34316;51.514;-0.178;2023-12-07T04:15:01;25.02;;;20.15;;
48524;SDS011;34316;51.514;-0.178;2023-12-07T04:17:03;26.02;;;19.63;;
48524;SDS011;34316;51.514;-0.178;2023-12-07T04:19:05;27.23;;;19.70;;
48524;SDS011;34316;51.514;-0.178;2023-12-07T04:21:07;25.02;;;19.48;;
48524;SDS011;34316;51.514;-0.178;2023-12-07T04:23:09;25.08;;;19.77;;
48524;SDS011;34316;51.514;-0.178;2023-12-07T04:25:11;25.90;;;18.90;;
48524;SDS011;34316;51.514;-0.178;2023-12-07T04:27:13;24.73;;;18.85;;
48524;SDS011;34316;51.514;-0.178;2023-12-07T04:29:16;24.40;;;18.60;;
48524;SDS011;34316;51.514;-0.178;2023-12-07T04:31:18;26.83;;;20.10;;
48524;SDS011;34316;51.514;-0.178;2023-12-07T04:33:20;25.23;;;18.67;;
48524;SDS011;34316;51.514;-0.178;2023-12-07T04:35:22;24.77;;;19.17;;
48524;SDS011;34316;51.514;-0.178;2023-12-07T04:37:24;25.23;;;19.63;;
48524;SDS011;34316;51.514;-0.178;2023-12-07T04:39:26;21.77;;;17.70;;
48524;SDS011;34316;51.514;-0.178;2023-12-07T04:41:28;22.33;;;18.15;;
48524;SDS011;34316;51.514;-0.178;2023-12-07T04:43:29;25.17;;;18.48;;
48524;SDS011;34316;51.514;-0.178;2023-12-07T04:45:31;25.65;;;20.08;;
48524;SDS011;34316;51.514;-0.178;2023-12-07T04:47:33;26.95;;;19.80;;
48524;SDS011;34316;51.514;-0.178;2023-12-07T04:49:35;25.45;;;19.83;;
48524;SDS011;34316;51.514;-0.178;2023-12-07T04:51:37;27.17;;;19.52;;
48524;SDS011;34316;51.514;-0.178;2023-12-07T04:53:39;23.70;;;18.85;;
48524;SDS011;34316;51.514;-0.178;2023-12-07T04:55:41;25.80;;;19.92;;
48524;SDS011;34316;51.514;-0.178;2023-12-07T04:57:48;24.83;;;20.00;;
48524;SDS011;34316;51.514;-0.178;2023-12-07T04:59:50;25.38;;;20.25;;
48524;SDS011;34316;51.514;-0.178;2023-12-07T05:01:51;30.17;;;22.48;;
48524;SDS011;34316;51.514;-0.178;2023-12-07T05:03:54;27.02;;;21.50;;
48524;SDS011;34316;51.514;-0.178;2023-12-07T05:05:56;28.85;;;21.90;;
48524;SDS011;34316;51.514;-0.178;2023-12-07T05:07:58;28.48;;;22.20;;
48524;SDS011;34316;51.514;-0.178;2023-12-07T05:10:00;25.95;;;21.70;;
48524;SDS011;34316;51.514;-0.178;2023-12-07T05:12:02;25.95;;;21.83;;
48524;SDS011;34316;51.514;-0.178;2023-12-07T05:14:04;31.88;;;21.88;;
48524;SDS011;34316;51.514;-0.178;2023-12-07T05:16:06;26.73;;;21.63;;
48524;SDS011;34316;51.514;-0.178;2023-12-07T05:18:09;28.75;;;22.55;;
48524;SDS011;34316;51.514;-0.178;2023-12-07T05:20:11;28.60;;;22.92;;
48524;SDS011;34316;51.514;-0.178;2023-12-07T05:22:14;29.83;;;22.65;;
48524;SDS011;34316;51.514;-0.178;2023-12-07T05:24:16;26.38;;;22.08;;
48524;SDS011;34316;51.514;-0.178;2023-12-07T05:26:18;22.48;;;18.70;;
48524;SDS011;34316;51.514;-0.178;2023-12-07T05:28:20;28.02;;;23.08;;
48524;SDS011;34316;51.514;-0.178;2023-12-07T05:30:22;29.95;;;23.05;;
48524;SDS011;34316;51.514;-0.178;2023-12-07T05:32:24;30.42;;;22.95;;
48524;SDS011;34316;51.514;-0.178;2023-12-07T05:34:26;28.73;;;22.85;;
48524;SDS011;34316;51.514;-0.178;2023-12-07T05:36:28;27.30;;;21.80;;
48524;SDS011;34316;51.514;-0.178;2023-12-07T05:38:30;28.90;;;22.90;;
48524;SDS011;34316;51.514;-0.178;2023-12-07T05:40:32;26.98;;;21.45;;
48524;SDS011;34316;51.514;-0.178;2023-12-07T05:42:35;26.47;;;20.97;;
48524;SDS011;34316;51.514;-0.178;2023-12-07T05:44:37;26.30;;;21.90;;
48524;SDS011;34316;51.514;-0.178;2023-12-07T05:46:39;25.83;;;21.90;;
48524;SDS011;34316;51.514;-0.178;2023-12-07T05:48:45;27.73;;;21.30;;
48524;SDS011;34316;51.514;-0.178;2023-12-07T05:50:47;26.30;;;20.20;;
48524;SDS011;34316;51.514;-0.178;2023-12-07T05:52:51;26.48;;;20.95;;
48524;SDS011;34316;51.514;-0.178;2023-12-07T05:54:52;25.00;;;20.08;;
48524;SDS011;34316;51.514;-0.178;2023-12-07T05:56:54;23.70;;;18.80;;
48524;SDS011;34316;51.514;-0.178;2023-12-07T05:58:56;25.63;;;19.58;;
48524;SDS011;34316;51.514;-0.178;2023-12-07T06:01:00;25.13;;;20.05;;
48524;SDS011;34316;51.514;-0.178;2023-12-07T06:03:03;23.30;;;19.30;;
48524;SDS011;34316;51.514;-0.178;2023-12-07T06:05:05;26.08;;;19.00;;
48524;SDS011;34316;51.514;-0.178;2023-12-07T06:07:07;27.13;;;20.08;;
48524;SDS011;34316;51.514;-0.178;2023-12-07T06:09:09;25.60;;;19.05;;
48524;SDS011;34316;51.514;-0.178;2023-12-07T06:11:12;23.83;;;18.58;;
48524;SDS011;34316;51.514;-0.178;2023-12-07T06:13:14;24.42;;;18.88;;
48524;SDS011;34316;51.514;-0.178;2023-12-07T06:15:16;29.00;;;19.88;;
48524;SDS011;34316;51.514;-0.178;2023-12-07T06:17:19;24.48;;;19.23;;
48524;SDS011;34316;51.514;-0.178;2023-12-07T06:19:22;25.73;;;19.77;;
48524;SDS011;34316;51.514;-0.178;2023-12-07T06:21:24;23.13;;;18.55;;
48524;SDS011;34316;51.514;-0.178;2023-12-07T06:23:28;24.42;;;18.90;;
48524;SDS011;34316;51.514;-0.178;2023-12-07T06:25:30;26.05;;;19.65;;
48524;SDS011;34316;51.514;-0.178;2023-12-07T06:27:32;27.80;;;20.90;;
48524;SDS011;34316;51.514;-0.178;2023-12-07T06:29:35;27.77;;;20.17;;
48524;SDS011;34316;51.514;-0.178;2023-12-07T06:31:42;25.92;;;19.52;;
48524;SDS011;34316;51.514;-0.178;2023-12-07T06:33:44;28.88;;;19.75;;
48524;SDS011;34316;51.514;-0.178;2023-12-07T06:35:47;26.50;;;19.35;;
48524;SDS011;34316;51.514;-0.178;2023-12-07T06:37:49;25.25;;;18.70;;
48524;SDS011;34316;51.514;-0.178;2023-12-07T06:39:51;28.83;;;19.85;;
48524;SDS011;34316;51.514;-0.178;2023-12-07T06:41:53;26.35;;;19.65;;
48524;SDS011;34316;51.514;-0.178;2023-12-07T06:43:56;26.00;;;19.55;;
48524;SDS011;34316;51.514;-0.178;2023-12-07T06:45:59;23.45;;;19.23;;
48524;SDS011;34316;51.514;-0.178;2023-12-07T06:48:01;23.50;;;19.27;;
48524;SDS011;34316;51.514;-0.178;2023-12-07T06:50:04;23.17;;;19.27;;
48524;SDS011;34316;51.514;-0.178;2023-12-07T06:52:09;27.45;;;20.65;;
48524;SDS011;34316;51.514;-0.178;2023-12-07T06:54:12;32.25;;;22.98;;
48524;SDS011;34316;51.514;-0.178;2023-12-07T06:56:15;26.08;;;21.58;;
48524;SDS011;34316;51.514;-0.178;2023-12-07T06:58:17;27.73;;;21.20;;
48524;SDS011;34316;51.514;-0.178;2023-12-07T07:00:19;24.38;;;18.75;;
48524;SDS011;34316;51.514;-0.178;2023-12-07T07:02:21;21.63;;;17.55;;
48524;SDS011;34316;51.514;-0.178;2023-12-07T07:04:24;22.30;;;18.17;;
48524;SDS011;34316;51.514;-0.178;2023-12-07T07:06:26;26.88;;;19.30;;
48524;SDS011;34316;51.514;-0.178;2023-12-07T07:08:28;23.98;;;19.83;;
48524;SDS011;34316;51.514;-0.178;2023-12-07T07:10:30;25.80;;;18.77;;
48524;SDS011;34316;51.514;-0.178;2023-12-07T07:12:32;33.67;;;22.48;;
48524;SDS011;34316;51.514;-0.178;2023-12-07T07:14:34;24.38;;;18.20;;
48524;SDS011;34316;51.514;-0.178;2023-12-07T07:16:39;29.55;;;19.20;;
48524;SDS011;34316;51.514;-0.178;2023-12-07T07:18:46;24.48;;;18.80;;
48524;SDS011;34316;51.514;-0.178;2023-12-07T07:20:48;25.85;;;19.60;;
48524;SDS011;34316;51.514;-0.178;2023-12-07T07:22:50;24.98;;;17.70;;
48524;SDS011;34316;51.514;-0.178;2023-12-07T07:24:52;24.75;;;18.98;;
48524;SDS011;34316;51.514;-0.178;2023-12-07T07:26:54;25.02;;;18.50;;
48524;SDS011;34316;51.514;-0.178;2023-12-07T07:28:56;23.40;;;17.63;;
48524;SDS011;34316;51.514;-0.178;2023-12-07T07:30:58;23.35;;;17.77;;
48524;SDS011;34316;51.514;-0.178;2023-12-07T07:33:00;30.88;;;20.73;;
48524;SDS011;34316;51.514;-0.178;2023-12-07T07:35:02;29.15;;;21.77;;
48524;SDS011;34316;51.514;-0.178;2023-12-07T07:37:05;27.58;;;21.42;;
48524;SDS011;34316;51.514;-0.178;2023-12-07T07:39:08;26.58;;;20.38;;
48524;SDS011;34316;51.514;-0.178;2023-12-07T07:41:10;23.58;;;19.23;;
48524;SDS011;34316;51.514;-0.178;2023-12-07T07:43:12;29.83;;;21.70;;
48524;SDS011;34316;51.514;-0.178;2023-12-07T07:45:14;26.90;;;19.35;;
48524;SDS011;34316;51.514;-0.178;2023-12-07T07:47:16;20.88;;;16.50;;
48524;SDS011;34316;51.514;-0.178;2023-12-07T07:49:18;18.50;;;14.65;;
48524;SDS011;34316;51.514;-0.178;2023-12-07T07:51:20;19.77;;;14.10;;
48524;SDS011;34316;51.514;-0.178;2023-12-07T07:53:22;19.30;;;14.38;;
48524;SDS011;34316;51.514;-0.178;2023-12-07T07:55:25;18.88;;;13.23;;
48524;SDS011;34316;51.514;-0.178;2023-12-07T07:57:27;18.15;;;12.93;;
48524;SDS011;34316;51.514;-0.178;2023-12-07T07:59:29;17.73;;;13.75;;
48524;SDS011;34316;51.514;-0.178;2023-12-07T08:01:32;18.55;;;13.98;;
48524;SDS011;34316;51.514;-0.178;2023-12-07T08:03:34;18.90;;;14.75;;
48524;SDS011;34316;51.514;-0.178;2023-12-07T08:05:36;18.45;;;14.63;;
48524;SDS011;34316;51.514;-0.178;2023-12-07T08:07:39;18.63;;;14.23;;
48524;SDS011;34316;51.514;-0.178;2023-12-07T08:09:41;19.15;;;13.85;;
48524;SDS011;34316;51.514;-0.178;2023-12-07T08:11:42;17.52;;;14.60;;
48524;SDS011;34316;51.514;-0.178;2023-12-07T08:13:44;15.82;;;12.68;;
48524;SDS011;34316;51.514;-0.178;2023-12-07T08:15:46;15.45;;;11.05;;
48524;SDS011;34316;51.514;-0.178;2023-12-07T08:17:48;12.73;;;10.63;;
48524;SDS011;34316;51.514;-0.178;2023-12-07T08:19:50;15.38;;;11.70;;
48524;SDS011;34316;51.514;-0.178;2023-12-07T08:21:52;16.38;;;12.77;;
48524;SDS011;34316;51.514;-0.178;2023-12-07T08:23:54;14.90;;;10.80;;
48524;SDS011;34316;51.514;-0.178;2023-12-07T08:25:56;13.27;;;9.82;;
48524;SDS011;34316;51.514;-0.178;2023-12-07T08:27:58;25.75;;;17.35;;
48524;SDS011;34316;51.514;-0.178;2023-12-07T08:30:00;34.25;;;18.77;;
48524;SDS011;34316;51.514;-0.178;2023-12-07T08:32:03;19.13;;;11.90;;
48524;SDS011;34316;51.514;-0.178;2023-12-07T08:34:05;15.65;;;10.63;;
48524;SDS011;34316;51.514;-0.178;2023-12-07T08:36:07;34.22;;;21.13;;
48524;SDS011;34316;51.514;-0.178;2023-12-07T08:38:09;17.05;;;12.95;;
48524;SDS011;34316;51.514;-0.178;2023-12-07T08:40:11;30.20;;;17.63;;
48524;SDS011;34316;51.514;-0.178;2023-12-07T08:42:16;29.25;;;16.33;;
48524;SDS011;34316;51.514;-0.178;2023-12-07T08:44:18;37.78;;;18.75;;
48524;SDS011;34316;51.514;-0.178;2023-12-07T08:46:20;12.63;;;8.20;;
48524;SDS011;34316;51.514;-0.178;2023-12-07T08:48:22;7.85;;;6.35;;
48524;SDS011;34316;51.514;-0.178;2023-12-07T08:50:25;7.78;;;6.75;;
48524;SDS011;34316;51.514;-0.178;2023-12-07T08:52:27;5.85;;;5.15;;
48524;SDS011;34316;51.514;-0.178;2023-12-07T08:54:45;6.38;;;5.45;;
48524;SDS011;34316;51.514;-0.178;2023-12-07T08:56:48;5.27;;;4.37;;
48524;SDS011;34316;51.514;-0.178;2023-12-07T08:58:50;5.57;;;4.10;;
48524;SDS011;34316;51.514;-0.178;2023-12-07T09:00:52;5.13;;;4.10;;
48524;SDS011;34316;51.514;-0.178;2023-12-07T09:02:54;5.05;;;4.00;;
48524;SDS011;34316;51.514;-0.178;2023-12-07T09:04:56;4.40;;;3.90;;
48524;SDS011;34316;51.514;-0.178;2023-12-07T09:06:58;5.18;;;4.22;;
48524;SDS011;34316;51.514;-0.178;2023-12-07T09:09:00;3.60;;;3.08;;
48524;SDS011;34316;51.514;-0.178;2023-12-07T09:11:02;5.03;;;4.15;;
48524;SDS011;34316;51.514;-0.178;2023-12-07T09:13:05;4.53;;;3.70;;
48524;SDS011;34316;51.514;-0.178;2023-12-07T09:15:07;4.38;;;3.85;;
48524;SDS011;34316;51.514;-0.178;2023-12-07T09:17:11;3.67;;;3.05;;
48524;SDS011;34316;51.514;-0.178;2023-12-07T09:19:13;5.22;;;3.50;;
48524;SDS011;34316;51.514;-0.178;2023-12-07T09:21:16;4.38;;;3.42;;
48524;SDS011;34316;51.514;-0.178;2023-12-07T09:23:18;5.20;;;3.97;;
48524;SDS011;34316;51.514;-0.178;2023-12-07T09:25:20;3.80;;;3.30;;
48524;SDS011;34316;51.514;-0.178;2023-12-07T09:27:22;3.60;;;2.70;;
48524;SDS011;34316;51.514;-0.178;2023-12-07T09:29:24;4.45;;;3.40;;
48524;SDS011;34316;51.514;-0.178;2023-12-07T09:31:26;3.92;;;2.55;;
48524;SDS011;34316;51.514;-0.178;2023-12-07T09:33:28;3.05;;;2.40;;
48524;SDS011;34316;51.514;-0.178;2023-12-07T09:35:30;3.20;;;2.35;;
48524;SDS011;34316;51.514;-0.178;2023-12-07T09:37:33;4.03;;;2.83;;
48524;SDS011;34316;51.514;-0.178;2023-12-07T09:39:35;3.83;;;2.72;;
48524;SDS011;34316;51.514;-0.178;2023-12-07T09:41:37;4.13;;;2.67;;
48524;SDS011;34316;51.514;-0.178;2023-12-07T09:43:40;3.20;;;2.30;;
48524;SDS011;34316;51.514;-0.178;2023-12-07T09:45:43;3.42;;;2.70;;
48524;SDS011;34316;51.514;-0.178;2023-12-07T09:47:46;2.88;;;2.33;;
48524;SDS011;34316;51.514;-0.178;2023-12-07T09:49:53;3.35;;;2.47;;
48524;SDS011;34316;51.514;-0.178;2023-12-07T09:51:55;3.60;;;2.30;;
48524;SDS011;34316;51.514;-0.178;2023-12-07T09:53:58;2.97;;;2.42;;
48524;SDS011;34316;51.514;-0.178;2023-12-07T09:56:00;3.00;;;2.30;;
48524;SDS011;34316;51.514;-0.178;2023-12-07T09:58:03;3.75;;;2.42;;
48524;SDS011;34316;51.514;-0.178;2023-12-07T10:00:07;3.03;;;2.13;;
48524;SDS011;34316;51.514;-0.178;2023-12-07T10:04:19;2.63;;;1.73;;
48524;SDS011;34316;51.514;-0.178;2023-12-07T10:06:24;2.97;;;1.75;;
48524;SDS011;34316;51.514;-0.178;2023-12-07T10:08:27;2.40;;;1.80;;
48524;SDS011;34316;51.514;-0.178;2023-12-07T10:10:31;2.40;;;1.75;;
48524;SDS011;34316;51.514;-0.178;2023-12-07T10:12:33;2.80;;;1.88;;
48524;SDS011;34316;51.514;-0.178;2023-12-07T10:14:37;1.90;;;1.42;;
48524;SDS011;34316;51.514;-0.178;2023-12-07T10:16:51;2.65;;;1.65;;
48524;SDS011;34316;51.514;-0.178;2023-12-07T10:18:56;2.90;;;1.73;;
48524;SDS011;34316;51.514;-0.178;2023-12-07T10:20:59;2.03;;;1.48;;
48524;SDS011;34316;51.514;-0.178;2023-12-07T10:23:05;2.60;;;1.80;;
48524;SDS011;34316;51.514;-0.178;2023-12-07T10:25:10;2.05;;;1.40;;
48524;SDS011;34316;51.514;-0.178;2023-12-07T10:27:13;2.60;;;1.48;;
48524;SDS011;34316;51.514;-0.178;2023-12-07T10:29:17;2.83;;;1.73;;
48524;SDS011;34316;51.514;-0.178;2023-12-07T10:31:32;2.45;;;1.73;;
48524;SDS011;34316;51.514;-0.178;2023-12-07T10:33:34;2.88;;;1.80;;
48524;SDS011;34316;51.514;-0.178;2023-12-07T10:35:39;2.55;;;1.75;;
48524;SDS011;34316;51.514;-0.178;2023-12-07T10:37:42;2.35;;;1.67;;
48524;SDS011;34316;51.514;-0.178;2023-12-07T10:39:44;2.90;;;1.75;;
48524;SDS011;34316;51.514;-0.178;2023-12-07T10:41:46;2.92;;;1.63;;
48524;SDS011;34316;51.514;-0.178;2023-12-07T10:44:01;2.55;;;1.80;;
48524;SDS011;34316;51.514;-0.178;2023-12-07T10:46:05;2.55;;;1.80;;
48524;SDS011;34316;51.514;-0.178;2023-12-07T10:48:08;2.90;;;2.00;;
48524;SDS011;34316;51.514;-0.178;2023-12-07T10:50:11;2.85;;;2.00;;
48524;SDS011;34316;51.514;-0.178;2023-12-07T10:52:15;2.47;;;1.73;;
48524;SDS011;34316;51.514;-0.178;2023-12-07T10:54:18;2.40;;;1.85;;
48524;SDS011;34316;51.514;-0.178;2023-12-07T10:56:34;3.33;;;2.00;;
48524;SDS011;34316;51.514;-0.178;2023-12-07T10:58:44;3.03;;;1.83;;
48524;SDS011;34316;51.514;-0.178;2023-12-07T11:00:46;3.10;;;1.95;;
48524;SDS011;34316;51.514;-0.178;2023-12-07T11:02:50;3.27;;;2.13;;
48524;SDS011;34316;51.514;-0.178;2023-12-07T11:04:56;3.53;;;2.60;;
48524;SDS011;34316;51.514;-0.178;2023-12-07T11:07:01;2.83;;;2.17;;
48524;SDS011;34316;51.514;-0.178;2023-12-07T11:09:07;4.70;;;2.13;;
48524;SDS011;34316;51.514;-0.178;2023-12-07T11:13:25;2.88;;;2.03;;
48524;SDS011;34316;51.514;-0.178;2023-12-07T11:15:30;4.15;;;2.70;;
48524;SDS011;34316;51.514;-0.178;2023-12-07T11:17:54;4.03;;;2.63;;
48524;SDS011;34316;51.514;-0.178;2023-12-07T11:19:56;4.35;;;2.90;;
48524;SDS011;34316;51.514;-0.178;2023-12-07T11:22:02;3.70;;;2.55;;
48524;SDS011;34316;51.514;-0.178;2023-12-07T11:24:05;4.82;;;2.80;;
48524;SDS011;34316;51.514;-0.178;2023-12-07T11:26:07;4.60;;;2.58;;
48524;SDS011;34316;51.514;-0.178;2023-12-07T11:28:10;4.75;;;2.67;;
48524;SDS011;34316;51.514;-0.178;2023-12-07T11:30:13;3.85;;;2.30;;
48524;SDS011;34316;51.514;-0.178;2023-12-07T11:32:16;5.50;;;2.53;;
48524;SDS011;34316;51.514;-0.178;2023-12-07T11:34:41;3.83;;;2.78;;
48524;SDS011;34316;51.514;-0.178;2023-12-07T11:36:45;4.82;;;2.30;;
48524;SDS011;34316;51.514;-0.178;2023-12-07T11:41:04;4.20;;;2.35;;
48524;SDS011;34316;51.514;-0.178;2023-12-07T11:43:07;3.67;;;2.65;;
48524;SDS011;34316;51.514;-0.178;2023-12-07T11:45:09;3.58;;;2.50;;
48524;SDS011;34316;51.514;-0.178;2023-12-07T11:47:12;4.20;;;2.90;;
48524;SDS011;34316;51.514;-0.178;2023-12-07T11:49:18;3.38;;;2.55;;
48524;SDS011;34316;51.514;-0.178;2023-12-07T11:51:33;4.72;;;3.50;;
48524;SDS011;34316;51.514;-0.178;2023-12-07T11:53:35;5.55;;;3.13;;
48524;SDS011;34316;51.514;-0.178;2023-12-07T11:55:37;3.95;;;2.78;;
48524;SDS011;34316;51.514;-0.178;2023-12-07T11:57:39;4.50;;;3.10;;
48524;SDS011;34316;51.514;-0.178;2023-12-07T11:59:43;4.32;;;3.00;;
48524;SDS011;34316;51.514;-0.178;2023-12-07T12:01:46;4.22;;;2.80;;
48524;SDS011;34316;51.514;-0.178;2023-12-07T12:03:49;4.07;;;2.55;;
48524;SDS011;34316;51.514;-0.178;2023-12-07T12:05:51;7.35;;;3.10;;